sensor_id;sensor_type;location;lat;lon;timestamp;P1;durP1;ratioP1;P2;durP2;ratioP2
11303;SDS011;5707;49.588;12.148;2024-02-23T00:00:00;0.35;;;0.10;;
11303;SDS011;5707;49.588;12.148;2024-02-23T00:02:30;0.77;;;0.20;;
11303;SDS011;5707;49.588;12.148;2024-02-23T00:04:56;0.15;;;0.15;;
11303;SDS011;5707;49.588;12.148;2024-02-23T00:07:21;0.22;;;0.20;;
11303;SDS011;5707;49.588;12.148;2024-02-23T00:09:47;0.20;;;0.20;;
11303;SDS011;5707;49.588;12.148;2024-02-23T00:12:12;0.10;;;0.10;;
11303;SDS011;5707;49.588;12.148;2024-02-23T00:14:39;0.30;;;0.30;;
11303;SDS011;5707;49.588;12.148;2024-02-23T00:17:04;0.13;;;0.13;;
11303;SDS011;5707;49.588;12.148;2024-02-23T00:19:30;0.10;;;0.10;;
11303;SDS011;5707;49.588;12.148;2024-02-23T00:21:56;0.30;;;0.20;;
11303;SDS011;5707;49.588;12.148;2024-02-23T00:24:24;1.33;;;0.10;;
11303;SDS011;5707;49.588;12.148;2024-02-23T00:26:52;0.10;;;0.10;;
11303;SDS011;5707;49.588;12.148;2024-02-23T00:29:18;0.10;;;0.10;;
11303;SDS011;5707;49.588;12.148;2024-02-23T00:31:44;0.43;;;0.20;;
11303;SDS011;5707;49.588;12.148;2024-02-23T00:34:13;0.10;;;0.10;;
11303;SDS011;5707;49.588;12.148;2024-02-23T00:36:39;0.32;;;0.20;;
11303;SDS011;5707;49.588;12.148;2024-02-23T00:39:06;0.20;;;0.20;;
11303;SDS011;5707;49.588;12.148;2024-02-23T00:41:35;0.28;;;0.20;;
11303;SDS011;5707;49.588;12.148;2024-02-23T00:44:01;0.60;;;0.30;;
11303;SDS011;5707;49.588;12.148;2024-02-23T00:46:30;0.30;;;0.20;;
11303;SDS011;5707;49.588;12.148;2024-02-23T00:48:56;0.28;;;0.20;;
11303;SDS011;5707;49.588;12.148;2024-02-23T00:51:21;0.52;;;0.15;;
11303;SDS011;5707;49.588;12.148;2024-02-23T00:53:47;0.10;;;0.10;;
11303;SDS011;5707;49.588;12.148;2024-02-23T00:56:13;0.20;;;0.20;;
11303;SDS011;5707;49.588;12.148;2024-02-23T00:58:39;0.47;;;0.30;;
11303;SDS011;5707;49.588;12.148;2024-02-23T01:01:04;0.10;;;0.10;;
11303;SDS011;5707;49.588;12.148;2024-02-23T01:03:30;0.13;;;0.13;;
11303;SDS011;5707;49.588;12.148;2024-02-23T01:05:56;0.22;;;0.10;;
11303;SDS011;5707;49.588;12.148;2024-02-23T01:08:21;1.13;;;0.20;;
11303;SDS011;5707;49.588;12.148;2024-02-23T01:10:47;0.10;;;0.10;;
11303;SDS011;5707;49.588;12.148;2024-02-23T01:13:12;0.20;;;0.20;;
11303;SDS011;5707;49.588;12.148;2024-02-23T01:15:38;0.20;;;0.10;;
11303;SDS011;5707;49.588;12.148;2024-02-23T01:18:04;0.10;;;0.10;;
11303;SDS011;5707;49.588;12.148;2024-02-23T01:20:32;0.10;;;0.10;;
11303;SDS011;5707;49.588;12.148;2024-02-23T01:22:58;0.10;;;0.10;;
11303;SDS011;5707;49.588;12.148;2024-02-23T01:25:24;0.13;;;0.13;;
11303;SDS011;5707;49.588;12.148;2024-02-23T01:27:49;0.10;;;0.10;;
11303;SDS011;5707;49.588;12.148;2024-02-23T01:30:15;0.95;;;0.30;;
11303;SDS011;5707;49.588;12.148;2024-02-23T01:32:40;0.10;;;0.10;;
11303;SDS011;5707;49.588;12.148;2024-02-23T01:35:06;0.00;;;0.00;;
11303;SDS011;5707;49.588;12.148;2024-02-23T01:37:33;0.20;;;0.20;;
11303;SDS011;5707;49.588;12.148;2024-02-23T01:39:59;0.52;;;0.25;;
11303;SDS011;5707;49.588;12.148;2024-02-23T01:42:25;0.38;;;0.10;;
11303;SDS011;5707;49.588;12.148;2024-02-23T01:44:51;0.65;;;0.10;;
11303;SDS011;5707;49.588;12.148;2024-02-23T01:47:17;0.22;;;0.10;;
11303;SDS011;5707;49.588;12.148;2024-02-23T01:49:43;0.10;;;0.03;;
11303;SDS011;5707;49.588;12.148;2024-02-23T01:52:11;1.23;;;0.10;;
11303;SDS011;5707;49.588;12.148;2024-02-23T01:54:38;0.10;;;0.10;;
11303;SDS011;5707;49.588;12.148;2024-02-23T01:57:04;2.30;;;0.13;;
11303;SDS011;5707;49.588;12.148;2024-02-23T01:59:31;0.20;;;0.10;;
11303;SDS011;5707;49.588;12.148;2024-02-23T02:01:57;0.08;;;0.00;;
11303;SDS011;5707;49.588;12.148;2024-02-23T02:04:23;0.60;;;0.10;;
11303;SDS011;5707;49.588;12.148;2024-02-23T02:06:48;0.13;;;0.08;;
11303;SDS011;5707;49.588;12.148;2024-02-23T02:09:14;0.00;;;0.00;;
11303;SDS011;5707;49.588;12.148;2024-02-23T02:11:46;0.10;;;0.10;;
11303;SDS011;5707;49.588;12.148;2024-02-23T02:14:13;0.10;;;0.10;;
11303;SDS011;5707;49.588;12.148;2024-02-23T02:16:39;1.17;;;0.05;;
11303;SDS011;5707;49.588;12.148;2024-02-23T02:19:04;0.08;;;0.08;;
11303;SDS011;5707;49.588;12.148;2024-02-23T02:21:31;0.93;;;0.20;;
11303;SDS011;5707;49.588;12.148;2024-02-23T02:23:57;0.35;;;0.13;;
11303;SDS011;5707;49.588;12.148;2024-02-23T02:26:26;0.10;;;0.00;;
11303;SDS011;5707;49.588;12.148;2024-02-23T02:28:51;0.05;;;0.00;;
11303;SDS011;5707;49.588;12.148;2024-02-23T02:31:17;1.75;;;0.10;;
11303;SDS011;5707;49.588;12.148;2024-02-23T02:33:43;0.22;;;0.10;;
11303;SDS011;5707;49.588;12.148;2024-02-23T02:36:09;0.00;;;0.00;;
11303;SDS011;5707;49.588;12.148;2024-02-23T02:38:34;0.00;;;0.00;;
11303;SDS011;5707;49.588;12.148;2024-02-23T02:41:00;0.10;;;0.10;;
11303;SDS011;5707;49.588;12.148;2024-02-23T02:43:26;0.10;;;0.00;;
11303;SDS011;5707;49.588;12.148;2024-02-23T02:45:52;0.25;;;0.10;;
11303;SDS011;5707;49.588;12.148;2024-02-23T02:48:18;1.38;;;0.10;;
11303;SDS011;5707;49.588;12.148;2024-02-23T02:50:43;2.08;;;0.10;;
11303;SDS011;5707;49.588;12.148;2024-02-23T02:53:09;0.20;;;0.10;;
11303;SDS011;5707;49.588;12.148;2024-02-23T02:55:36;0.22;;;0.10;;
11303;SDS011;5707;49.588;12.148;2024-02-23T02:58:02;0.20;;;0.15;;
11303;SDS011;5707;49.588;12.148;2024-02-23T03:00:27;0.15;;;0.13;;
11303;SDS011;5707;49.588;12.148;2024-02-23T03:02:53;0.10;;;0.00;;
11303;SDS011;5707;49.588;12.148;2024-02-23T03:05:19;0.10;;;0.10;;
11303;SDS011;5707;49.588;12.148;2024-02-23T03:07:45;0.30;;;0.20;;
11303;SDS011;5707;49.588;12.148;2024-02-23T03:10:10;0.13;;;0.10;;
11303;SDS011;5707;49.588;12.148;2024-02-23T03:12:36;0.10;;;0.10;;
11303;SDS011;5707;49.588;12.148;2024-02-23T03:15:01;0.45;;;0.10;;
11303;SDS011;5707;49.588;12.148;2024-02-23T03:17:28;0.08;;;0.08;;
11303;SDS011;5707;49.588;12.148;2024-02-23T03:19:54;1.80;;;0.22;;
11303;SDS011;5707;49.588;12.148;2024-02-23T03:22:19;0.30;;;0.00;;
11303;SDS011;5707;49.588;12.148;2024-02-23T03:24:45;1.10;;;0.20;;
11303;SDS011;5707;49.588;12.148;2024-02-23T03:27:10;0.30;;;0.20;;
11303;SDS011;5707;49.588;12.148;2024-02-23T03:29:37;0.40;;;0.32;;
11303;SDS011;5707;49.588;12.148;2024-02-23T03:32:03;2.22;;;0.32;;
11303;SDS011;5707;49.588;12.148;2024-02-23T03:34:29;0.10;;;0.10;;
11303;SDS011;5707;49.588;12.148;2024-02-23T03:36:55;0.73;;;0.30;;
11303;SDS011;5707;49.588;12.148;2024-02-23T03:39:20;0.15;;;0.15;;
11303;SDS011;5707;49.588;12.148;2024-02-23T03:41:46;0.38;;;0.25;;
11303;SDS011;5707;49.588;12.148;2024-02-23T03:44:11;0.40;;;0.08;;
11303;SDS011;5707;49.588;12.148;2024-02-23T03:46:37;0.68;;;0.20;;
11303;SDS011;5707;49.588;12.148;2024-02-23T03:49:02;0.22;;;0.20;;
11303;SDS011;5707;49.588;12.148;2024-02-23T03:51:28;0.35;;;0.10;;
11303;SDS011;5707;49.588;12.148;2024-02-23T03:53:54;0.75;;;0.30;;
11303;SDS011;5707;49.588;12.148;2024-02-23T03:56:19;0.40;;;0.20;;
11303;SDS011;5707;49.588;12.148;2024-02-23T03:58:45;0.08;;;0.08;;
11303;SDS011;5707;49.588;12.148;2024-02-23T04:01:10;0.45;;;0.20;;
11303;SDS011;5707;49.588;12.148;2024-02-23T04:03:36;0.13;;;0.10;;
11303;SDS011;5707;49.588;12.148;2024-02-23T04:06:01;0.85;;;0.40;;
11303;SDS011;5707;49.588;12.148;2024-02-23T04:08:27;1.52;;;0.30;;
11303;SDS011;5707;49.588;12.148;2024-02-23T04:10:53;0.10;;;0.10;;
11303;SDS011;5707;49.588;12.148;2024-02-23T04:13:18;0.63;;;0.20;;
11303;SDS011;5707;49.588;12.148;2024-02-23T04:15:44;0.35;;;0.20;;
11303;SDS011;5707;49.588;12.148;2024-02-23T04:18:10;0.30;;;0.20;;
11303;SDS011;5707;49.588;12.148;2024-02-23T04:20:36;0.35;;;0.30;;
11303;SDS011;5707;49.588;12.148;2024-02-23T04:23:01;0.20;;;0.13;;
11303;SDS011;5707;49.588;12.148;2024-02-23T04:25:27;0.77;;;0.30;;
11303;SDS011;5707;49.588;12.148;2024-02-23T04:27:52;0.57;;;0.20;;
11303;SDS011;5707;49.588;12.148;2024-02-23T04:30:18;0.10;;;0.10;;
11303;SDS011;5707;49.588;12.148;2024-02-23T04:32:43;1.15;;;0.20;;
11303;SDS011;5707;49.588;12.148;2024-02-23T04:35:09;0.55;;;0.20;;
11303;SDS011;5707;49.588;12.148;2024-02-23T04:37:35;0.25;;;0.20;;
11303;SDS011;5707;49.588;12.148;2024-02-23T04:40:00;0.70;;;0.30;;
11303;SDS011;5707;49.588;12.148;2024-02-23T04:42:26;0.85;;;0.35;;
11303;SDS011;5707;49.588;12.148;2024-02-23T04:44:52;0.80;;;0.40;;
11303;SDS011;5707;49.588;12.148;2024-02-23T04:47:20;1.63;;;0.30;;
11303;SDS011;5707;49.588;12.148;2024-02-23T04:49:45;2.20;;;0.80;;
11303;SDS011;5707;49.588;12.148;2024-02-23T04:52:11;2.03;;;0.70;;
11303;SDS011;5707;49.588;12.148;2024-02-23T04:54:37;0.70;;;0.40;;
11303;SDS011;5707;49.588;12.148;2024-02-23T04:57:02;2.17;;;0.82;;
11303;SDS011;5707;49.588;12.148;2024-02-23T04:59:28;0.47;;;0.40;;
11303;SDS011;5707;49.588;12.148;2024-02-23T05:01:55;0.95;;;0.30;;
11303;SDS011;5707;49.588;12.148;2024-02-23T05:04:20;1.65;;;0.35;;
11303;SDS011;5707;49.588;12.148;2024-02-23T05:06:46;0.20;;;0.20;;
11303;SDS011;5707;49.588;12.148;2024-02-23T05:09:11;2.08;;;0.40;;
11303;SDS011;5707;49.588;12.148;2024-02-23T05:11:37;2.03;;;0.40;;
11303;SDS011;5707;49.588;12.148;2024-02-23T05:14:02;0.60;;;0.30;;
11303;SDS011;5707;49.588;12.148;2024-02-23T05:16:28;3.45;;;0.50;;
11303;SDS011;5707;49.588;12.148;2024-02-23T05:18:53;2.92;;;0.60;;
11303;SDS011;5707;49.588;12.148;2024-02-23T05:21:19;0.77;;;0.47;;
11303;SDS011;5707;49.588;12.148;2024-02-23T05:23:45;0.95;;;0.30;;
11303;SDS011;5707;49.588;12.148;2024-02-23T05:26:11;0.88;;;0.30;;
11303;SDS011;5707;49.588;12.148;2024-02-23T05:28:37;0.82;;;0.35;;
11303;SDS011;5707;49.588;12.148;2024-02-23T05:31:03;0.88;;;0.40;;
11303;SDS011;5707;49.588;12.148;2024-02-23T05:33:29;2.22;;;0.43;;
11303;SDS011;5707;49.588;12.148;2024-02-23T05:35:55;0.50;;;0.38;;
11303;SDS011;5707;49.588;12.148;2024-02-23T05:38:20;0.50;;;0.20;;
11303;SDS011;5707;49.588;12.148;2024-02-23T05:40:46;1.58;;;0.20;;
11303;SDS011;5707;49.588;12.148;2024-02-23T05:43:13;0.73;;;0.60;;
11303;SDS011;5707;49.588;12.148;2024-02-23T05:45:39;2.10;;;0.40;;
11303;SDS011;5707;49.588;12.148;2024-02-23T05:48:04;1.10;;;0.45;;
11303;SDS011;5707;49.588;12.148;2024-02-23T05:50:30;1.92;;;0.68;;
11303;SDS011;5707;49.588;12.148;2024-02-23T05:52:57;3.13;;;0.60;;
11303;SDS011;5707;49.588;12.148;2024-02-23T05:55:23;0.25;;;0.17;;
11303;SDS011;5707;49.588;12.148;2024-02-23T05:57:49;1.77;;;0.60;;
11303;SDS011;5707;49.588;12.148;2024-02-23T06:00:15;0.63;;;0.40;;
11303;SDS011;5707;49.588;12.148;2024-02-23T06:02:44;0.82;;;0.40;;
11303;SDS011;5707;49.588;12.148;2024-02-23T06:05:10;0.88;;;0.45;;
11303;SDS011;5707;49.588;12.148;2024-02-23T06:07:36;0.85;;;0.57;;
11303;SDS011;5707;49.588;12.148;2024-02-23T06:10:02;0.85;;;0.30;;
11303;SDS011;5707;49.588;12.148;2024-02-23T06:12:28;0.75;;;0.32;;
11303;SDS011;5707;49.588;12.148;2024-02-23T06:14:53;1.40;;;0.40;;
11303;SDS011;5707;49.588;12.148;2024-02-23T06:17:20;2.28;;;0.40;;
11303;SDS011;5707;49.588;12.148;2024-02-23T06:19:46;0.60;;;0.30;;
11303;SDS011;5707;49.588;12.148;2024-02-23T06:22:12;1.30;;;0.52;;
11303;SDS011;5707;49.588;12.148;2024-02-23T06:24:37;0.38;;;0.17;;
11303;SDS011;5707;49.588;12.148;2024-02-23T06:27:03;2.40;;;0.70;;
11303;SDS011;5707;49.588;12.148;2024-02-23T06:29:29;0.20;;;0.20;;
11303;SDS011;5707;49.588;12.148;2024-02-23T06:31:55;1.83;;;0.45;;
11303;SDS011;5707;49.588;12.148;2024-02-23T06:34:20;0.95;;;0.45;;
11303;SDS011;5707;49.588;12.148;2024-02-23T06:36:46;1.30;;;0.73;;
11303;SDS011;5707;49.588;12.148;2024-02-23T06:39:12;2.17;;;0.32;;
11303;SDS011;5707;49.588;12.148;2024-02-23T06:41:38;1.15;;;0.40;;
11303;SDS011;5707;49.588;12.148;2024-02-23T06:44:04;1.77;;;0.47;;
11303;SDS011;5707;49.588;12.148;2024-02-23T06:46:29;1.67;;;0.50;;
11303;SDS011;5707;49.588;12.148;2024-02-23T06:48:55;1.42;;;0.32;;
11303;SDS011;5707;49.588;12.148;2024-02-23T06:51:21;1.55;;;0.57;;
11303;SDS011;5707;49.588;12.148;2024-02-23T06:53:46;0.47;;;0.30;;
11303;SDS011;5707;49.588;12.148;2024-02-23T06:56:12;1.42;;;0.57;;
11303;SDS011;5707;49.588;12.148;2024-02-23T06:58:38;1.80;;;0.60;;
11303;SDS011;5707;49.588;12.148;2024-02-23T07:01:04;1.23;;;0.40;;
11303;SDS011;5707;49.588;12.148;2024-02-23T07:03:31;0.88;;;0.45;;
11303;SDS011;5707;49.588;12.148;2024-02-23T07:05:58;0.80;;;0.60;;
11303;SDS011;5707;49.588;12.148;2024-02-23T07:08:23;3.10;;;0.60;;
11303;SDS011;5707;49.588;12.148;2024-02-23T07:10:49;1.90;;;0.55;;
11303;SDS011;5707;49.588;12.148;2024-02-23T07:13:15;1.35;;;0.45;;
11303;SDS011;5707;49.588;12.148;2024-02-23T07:15:42;2.40;;;0.60;;
11303;SDS011;5707;49.588;12.148;2024-02-23T07:18:07;0.55;;;0.45;;
11303;SDS011;5707;49.588;12.148;2024-02-23T07:20:33;1.40;;;0.57;;
11303;SDS011;5707;49.588;12.148;2024-02-23T07:23:00;0.63;;;0.40;;
11303;SDS011;5707;49.588;12.148;2024-02-23T07:25:26;1.00;;;0.40;;
11303;SDS011;5707;49.588;12.148;2024-02-23T07:27:51;0.50;;;0.40;;
11303;SDS011;5707;49.588;12.148;2024-02-23T07:30:17;0.80;;;0.50;;
11303;SDS011;5707;49.588;12.148;2024-02-23T07:32:45;3.13;;;0.50;;
11303;SDS011;5707;49.588;12.148;2024-02-23T07:35:11;1.88;;;0.73;;
11303;SDS011;5707;49.588;12.148;2024-02-23T07:37:37;1.23;;;0.30;;
11303;SDS011;5707;49.588;12.148;2024-02-23T07:40:03;1.45;;;0.60;;
11303;SDS011;5707;49.588;12.148;2024-02-23T07:42:29;2.08;;;0.93;;
11303;SDS011;5707;49.588;12.148;2024-02-23T07:44:56;2.38;;;0.68;;
11303;SDS011;5707;49.588;12.148;2024-02-23T07:47:22;1.15;;;0.77;;
11303;SDS011;5707;49.588;12.148;2024-02-23T07:49:47;2.03;;;1.38;;
11303;SDS011;5707;49.588;12.148;2024-02-23T07:52:13;2.45;;;1.10;;
11303;SDS011;5707;49.588;12.148;2024-02-23T07:54:38;1.48;;;1.02;;
11303;SDS011;5707;49.588;12.148;2024-02-23T07:57:04;1.85;;;1.05;;
11303;SDS011;5707;49.588;12.148;2024-02-23T07:59:30;2.47;;;1.05;;
11303;SDS011;5707;49.588;12.148;2024-02-23T08:01:55;2.95;;;1.25;;
11303;SDS011;5707;49.588;12.148;2024-02-23T08:04:21;3.10;;;1.17;;
11303;SDS011;5707;49.588;12.148;2024-02-23T08:06:47;3.10;;;0.90;;
11303;SDS011;5707;49.588;12.148;2024-02-23T08:09:13;2.38;;;0.98;;
11303;SDS011;5707;49.588;12.148;2024-02-23T08:11:39;1.60;;;1.00;;
11303;SDS011;5707;49.588;12.148;2024-02-23T08:14:04;3.70;;;1.05;;
11303;SDS011;5707;49.588;12.148;2024-02-23T08:16:30;3.42;;;0.93;;
11303;SDS011;5707;49.588;12.148;2024-02-23T08:18:55;1.75;;;0.70;;
11303;SDS011;5707;49.588;12.148;2024-02-23T08:21:21;1.40;;;0.85;;
11303;SDS011;5707;49.588;12.148;2024-02-23T08:23:46;2.53;;;1.05;;
11303;SDS011;5707;49.588;12.148;2024-02-23T08:26:12;1.58;;;0.75;;
11303;SDS011;5707;49.588;12.148;2024-02-23T08:28:37;2.47;;;1.00;;
11303;SDS011;5707;49.588;12.148;2024-02-23T08:31:03;1.67;;;0.90;;
11303;SDS011;5707;49.588;12.148;2024-02-23T08:33:29;1.00;;;0.52;;
11303;SDS011;5707;49.588;12.148;2024-02-23T08:35:55;2.30;;;0.68;;
11303;SDS011;5707;49.588;12.148;2024-02-23T08:38:20;0.60;;;0.60;;
11303;SDS011;5707;49.588;12.148;2024-02-23T08:40:46;0.77;;;0.60;;
11303;SDS011;5707;49.588;12.148;2024-02-23T08:43:13;3.75;;;0.90;;
11303;SDS011;5707;49.588;12.148;2024-02-23T08:45:38;1.52;;;0.80;;
11303;SDS011;5707;49.588;12.148;2024-02-23T08:48:04;0.63;;;0.40;;
11303;SDS011;5707;49.588;12.148;2024-02-23T08:50:30;3.60;;;0.73;;
11303;SDS011;5707;49.588;12.148;2024-02-23T08:52:55;2.10;;;0.60;;
11303;SDS011;5707;49.588;12.148;2024-02-23T08:55:21;0.77;;;0.52;;
11303;SDS011;5707;49.588;12.148;2024-02-23T08:57:47;0.45;;;0.38;;
11303;SDS011;5707;49.588;12.148;2024-02-23T09:00:13;1.80;;;0.70;;
11303;SDS011;5707;49.588;12.148;2024-02-23T09:02:39;1.95;;;0.60;;
11303;SDS011;5707;49.588;12.148;2024-02-23T09:05:07;2.53;;;0.73;;
11303;SDS011;5707;49.588;12.148;2024-02-23T09:07:33;2.78;;;0.75;;
11303;SDS011;5707;49.588;12.148;2024-02-23T09:09:59;0.63;;;0.50;;
11303;SDS011;5707;49.588;12.148;2024-02-23T09:12:24;1.33;;;0.30;;
11303;SDS011;5707;49.588;12.148;2024-02-23T09:14:50;0.70;;;0.40;;
11303;SDS011;5707;49.588;12.148;2024-02-23T09:17:16;0.70;;;0.45;;
11303;SDS011;5707;49.588;12.148;2024-02-23T09:19:43;1.92;;;0.75;;
11303;SDS011;5707;49.588;12.148;2024-02-23T09:22:09;2.67;;;0.47;;
11303;SDS011;5707;49.588;12.148;2024-02-23T09:24:34;2.78;;;0.90;;
11303;SDS011;5707;49.588;12.148;2024-02-23T09:27:03;1.33;;;0.77;;
11303;SDS011;5707;49.588;12.148;2024-02-23T09:29:29;2.30;;;0.70;;
11303;SDS011;5707;49.588;12.148;2024-02-23T09:31:54;2.00;;;0.57;;
11303;SDS011;5707;49.588;12.148;2024-02-23T09:34:20;0.80;;;0.45;;
11303;SDS011;5707;49.588;12.148;2024-02-23T09:36:46;1.83;;;0.38;;
11303;SDS011;5707;49.588;12.148;2024-02-23T09:39:11;1.02;;;0.50;;
11303;SDS011;5707;49.588;12.148;2024-02-23T09:41:37;1.80;;;0.70;;
11303;SDS011;5707;49.588;12.148;2024-02-23T09:44:04;0.63;;;0.40;;
11303;SDS011;5707;49.588;12.148;2024-02-23T09:46:32;0.60;;;0.50;;
11303;SDS011;5707;49.588;12.148;2024-02-23T09:48:58;0.73;;;0.40;;
11303;SDS011;5707;49.588;12.148;2024-02-23T09:51:24;2.17;;;0.65;;
11303;SDS011;5707;49.588;12.148;2024-02-23T09:53:50;0.63;;;0.50;;
11303;SDS011;5707;49.588;12.148;2024-02-23T09:56:17;2.25;;;0.70;;
11303;SDS011;5707;49.588;12.148;2024-02-23T09:58:44;1.00;;;0.50;;
11303;SDS011;5707;49.588;12.148;2024-02-23T10:01:12;0.73;;;0.60;;
11303;SDS011;5707;49.588;12.148;2024-02-23T10:03:46;0.98;;;0.57;;
11303;SDS011;5707;49.588;12.148;2024-02-23T10:06:12;0.68;;;0.40;;
11303;SDS011;5707;49.588;12.148;2024-02-23T10:08:38;0.50;;;0.40;;
11303;SDS011;5707;49.588;12.148;2024-02-23T10:11:03;0.50;;;0.50;;
11303;SDS011;5707;49.588;12.148;2024-02-23T10:13:30;0.52;;;0.30;;
11303;SDS011;5707;49.588;12.148;2024-02-23T10:15:55;0.68;;;0.50;;
11303;SDS011;5707;49.588;12.148;2024-02-23T10:18:21;1.65;;;0.73;;
11303;SDS011;5707;49.588;12.148;2024-02-23T10:20:48;0.80;;;0.50;;
11303;SDS011;5707;49.588;12.148;2024-02-23T10:23:15;1.02;;;0.73;;
11303;SDS011;5707;49.588;12.148;2024-02-23T10:25:41;2.80;;;0.40;;
11303;SDS011;5707;49.588;12.148;2024-02-23T10:28:06;2.42;;;0.47;;
11303;SDS011;5707;49.588;12.148;2024-02-23T10:30:33;0.30;;;0.30;;
11303;SDS011;5707;49.588;12.148;2024-02-23T10:32:58;1.90;;;1.08;;
11303;SDS011;5707;49.588;12.148;2024-02-23T10:35:24;0.90;;;0.68;;
11303;SDS011;5707;49.588;12.148;2024-02-23T10:37:51;1.45;;;0.30;;
11303;SDS011;5707;49.588;12.148;2024-02-23T10:40:18;0.63;;;0.47;;
11303;SDS011;5707;49.588;12.148;2024-02-23T10:42:46;0.82;;;0.38;;
11303;SDS011;5707;49.588;12.148;2024-02-23T10:45:16;1.27;;;0.47;;
11303;SDS011;5707;49.588;12.148;2024-02-23T10:47:42;0.38;;;0.38;;
11303;SDS011;5707;49.588;12.148;2024-02-23T10:50:08;2.40;;;0.45;;
11303;SDS011;5707;49.588;12.148;2024-02-23T10:52:35;0.80;;;0.30;;
11303;SDS011;5707;49.588;12.148;2024-02-23T10:55:03;0.35;;;0.30;;
11303;SDS011;5707;49.588;12.148;2024-02-23T10:57:34;0.98;;;0.50;;
11303;SDS011;5707;49.588;12.148;2024-02-23T11:00:00;1.73;;;0.35;;
11303;SDS011;5707;49.588;12.148;2024-02-23T11:02:30;1.30;;;0.40;;
11303;SDS011;5707;49.588;12.148;2024-02-23T11:04:57;0.73;;;0.40;;
11303;SDS011;5707;49.588;12.148;2024-02-23T11:07:24;0.60;;;0.47;;
11303;SDS011;5707;49.588;12.148;2024-02-23T11:09:53;1.42;;;0.60;;
11303;SDS011;5707;49.588;12.148;2024-02-23T11:12:28;1.15;;;0.50;;
11303;SDS011;5707;49.588;12.148;2024-02-23T11:14:58;1.38;;;0.50;;
11303;SDS011;5707;49.588;12.148;2024-02-23T11:17:28;1.48;;;0.52;;
11303;SDS011;5707;49.588;12.148;2024-02-23T11:19:55;1.45;;;1.13;;
11303;SDS011;5707;49.588;12.148;2024-02-23T11:22:32;1.75;;;0.50;;
11303;SDS011;5707;49.588;12.148;2024-02-23T11:25:03;0.70;;;0.57;;
11303;SDS011;5707;49.588;12.148;2024-02-23T11:27:33;0.88;;;0.70;;
11303;SDS011;5707;49.588;12.148;2024-02-23T11:30:07;1.10;;;0.40;;
11303;SDS011;5707;49.588;12.148;2024-02-23T11:32:42;0.80;;;0.40;;
11303;SDS011;5707;49.588;12.148;2024-02-23T11:35:12;0.88;;;0.60;;
11303;SDS011;5707;49.588;12.148;2024-02-23T11:37:45;0.85;;;0.68;;
11303;SDS011;5707;49.588;12.148;2024-02-23T11:40:21;1.98;;;1.35;;
11303;SDS011;5707;49.588;12.148;2024-02-23T11:42:47;1.35;;;0.40;;
11303;SDS011;5707;49.588;12.148;2024-02-23T11:45:13;1.20;;;0.95;;
11303;SDS011;5707;49.588;12.148;2024-02-23T11:47:38;1.40;;;0.98;;
11303;SDS011;5707;49.588;12.148;2024-02-23T11:50:10;1.77;;;0.60;;
11303;SDS011;5707;49.588;12.148;2024-02-23T11:52:39;1.27;;;0.70;;
11303;SDS011;5707;49.588;12.148;2024-02-23T11:55:05;1.73;;;0.45;;
11303;SDS011;5707;49.588;12.148;2024-02-23T11:57:34;0.68;;;0.50;;
11303;SDS011;5707;49.588;12.148;2024-02-23T12:00:03;0.50;;;0.40;;
11303;SDS011;5707;49.588;12.148;2024-02-23T12:02:31;0.93;;;0.80;;
11303;SDS011;5707;49.588;12.148;2024-02-23T12:05:00;1.10;;;0.65;;
11303;SDS011;5707;49.588;12.148;2024-02-23T12:07:26;1.08;;;0.80;;
11303;SDS011;5707;49.588;12.148;2024-02-23T12:09:54;1.40;;;0.60;;
11303;SDS011;5707;49.588;12.148;2024-02-23T12:12:20;2.22;;;0.75;;
11303;SDS011;5707;49.588;12.148;2024-02-23T12:14:47;2.72;;;0.80;;
11303;SDS011;5707;49.588;12.148;2024-02-23T12:17:13;0.95;;;0.60;;
11303;SDS011;5707;49.588;12.148;2024-02-23T12:19:39;1.50;;;0.43;;
11303;SDS011;5707;49.588;12.148;2024-02-23T12:22:05;2.00;;;0.43;;
11303;SDS011;5707;49.588;12.148;2024-02-23T12:24:31;1.05;;;0.38;;
11303;SDS011;5707;49.588;12.148;2024-02-23T12:26:56;0.40;;;0.40;;
11303;SDS011;5707;49.588;12.148;2024-02-23T12:29:22;1.48;;;0.57;;
11303;SDS011;5707;49.588;12.148;2024-02-23T12:31:48;1.70;;;0.52;;
11303;SDS011;5707;49.588;12.148;2024-02-23T12:34:15;1.02;;;0.68;;
11303;SDS011;5707;49.588;12.148;2024-02-23T12:36:41;3.05;;;1.00;;
11303;SDS011;5707;49.588;12.148;2024-02-23T12:39:07;0.82;;;0.55;;
11303;SDS011;5707;49.588;12.148;2024-02-23T12:41:32;0.93;;;0.30;;
11303;SDS011;5707;49.588;12.148;2024-02-23T12:43:58;0.57;;;0.40;;
11303;SDS011;5707;49.588;12.148;2024-02-23T12:46:24;0.60;;;0.40;;
11303;SDS011;5707;49.588;12.148;2024-02-23T12:48:50;0.60;;;0.43;;
11303;SDS011;5707;49.588;12.148;2024-02-23T12:51:15;1.13;;;0.80;;
11303;SDS011;5707;49.588;12.148;2024-02-23T12:53:42;0.63;;;0.60;;
11303;SDS011;5707;49.588;12.148;2024-02-23T12:56:09;0.90;;;0.50;;
11303;SDS011;5707;49.588;12.148;2024-02-23T12:58:41;0.63;;;0.47;;
11303;SDS011;5707;49.588;12.148;2024-02-23T13:01:08;1.30;;;0.47;;
11303;SDS011;5707;49.588;12.148;2024-02-23T13:03:35;1.58;;;0.75;;
11303;SDS011;5707;49.588;12.148;2024-02-23T13:06:03;1.20;;;0.60;;
11303;SDS011;5707;49.588;12.148;2024-02-23T13:08:29;1.08;;;0.45;;
11303;SDS011;5707;49.588;12.148;2024-02-23T13:10:56;1.23;;;0.50;;
11303;SDS011;5707;49.588;12.148;2024-02-23T13:13:22;0.95;;;0.57;;
11303;SDS011;5707;49.588;12.148;2024-02-23T13:15:48;1.00;;;0.30;;
11303;SDS011;5707;49.588;12.148;2024-02-23T13:18:15;1.10;;;0.68;;
11303;SDS011;5707;49.588;12.148;2024-02-23T13:20:41;1.10;;;0.75;;
11303;SDS011;5707;49.588;12.148;2024-02-23T13:23:10;1.73;;;1.00;;
11303;SDS011;5707;49.588;12.148;2024-02-23T13:25:37;2.35;;;0.85;;
11303;SDS011;5707;49.588;12.148;2024-02-23T13:28:05;2.05;;;1.08;;
11303;SDS011;5707;49.588;12.148;2024-02-23T13:30:31;1.25;;;0.95;;
11303;SDS011;5707;49.588;12.148;2024-02-23T13:32:57;1.42;;;0.70;;
11303;SDS011;5707;49.588;12.148;2024-02-23T13:35:23;3.35;;;0.85;;
11303;SDS011;5707;49.588;12.148;2024-02-23T13:37:49;1.17;;;0.70;;
11303;SDS011;5707;49.588;12.148;2024-02-23T13:40:14;1.65;;;0.70;;
11303;SDS011;5707;49.588;12.148;2024-02-23T13:42:40;3.63;;;1.00;;
11303;SDS011;5707;49.588;12.148;2024-02-23T13:45:06;0.80;;;0.52;;
11303;SDS011;5707;49.588;12.148;2024-02-23T13:47:32;0.73;;;0.60;;
11303;SDS011;5707;49.588;12.148;2024-02-23T13:49:59;1.02;;;0.88;;
11303;SDS011;5707;49.588;12.148;2024-02-23T13:52:24;1.50;;;0.80;;
11303;SDS011;5707;49.588;12.148;2024-02-23T13:54:50;1.20;;;1.08;;
11303;SDS011;5707;49.588;12.148;2024-02-23T13:57:16;1.20;;;1.10;;
11303;SDS011;5707;49.588;12.148;2024-02-23T13:59:41;1.23;;;0.60;;
11303;SDS011;5707;49.588;12.148;2024-02-23T14:02:07;0.88;;;0.55;;
11303;SDS011;5707;49.588;12.148;2024-02-23T14:04:32;0.60;;;0.60;;
11303;SDS011;5707;49.588;12.148;2024-02-23T14:06:58;0.60;;;0.60;;
11303;SDS011;5707;49.588;12.148;2024-02-23T14:09:23;0.90;;;0.47;;
11303;SDS011;5707;49.588;12.148;2024-02-23T14:11:49;0.90;;;0.55;;
11303;SDS011;5707;49.588;12.148;2024-02-23T14:14:15;1.42;;;0.85;;
11303;SDS011;5707;49.588;12.148;2024-02-23T14:16:41;0.75;;;0.75;;
11303;SDS011;5707;49.588;12.148;2024-02-23T14:19:07;2.08;;;0.77;;
11303;SDS011;5707;49.588;12.148;2024-02-23T14:21:32;1.80;;;1.13;;
11303;SDS011;5707;49.588;12.148;2024-02-23T14:23:58;1.70;;;0.82;;
11303;SDS011;5707;49.588;12.148;2024-02-23T14:26:24;0.98;;;0.85;;
11303;SDS011;5707;49.588;12.148;2024-02-23T14:28:50;1.00;;;0.80;;
11303;SDS011;5707;49.588;12.148;2024-02-23T14:31:15;1.90;;;0.70;;
11303;SDS011;5707;49.588;12.148;2024-02-23T14:33:41;1.27;;;1.17;;
11303;SDS011;5707;49.588;12.148;2024-02-23T14:36:07;1.63;;;1.48;;
11303;SDS011;5707;49.588;12.148;2024-02-23T14:38:32;2.45;;;1.65;;
11303;SDS011;5707;49.588;12.148;2024-02-23T14:40:58;1.42;;;1.33;;